Time;durP1;ratioP1;P1;durP2;ratioP2;P2;SDS_P1;SDS_P2;PMS_P1;PMS_P2;Temp;Humidity;BMP_temperature;BMP_pressure;BME280_temperature;BME280_humidity;BME280_pressure;Samples;Min_cycle;Max_cycle;Signal;HPM_P1;HPM_P2
2022/11/25 00:00:18;;;;;;;3.63;2.15;;;;;;;5.35;100.00;98825.34;4954862;28;20123;-82
2022/11/25 00:03:22;;;;;;;4.55;1.95;;;;;;;5.34;100.00;98828.88;4956858;28;20045;-81
2022/11/25 00:06:17;;;;;;;2.85;1.77;;;;;;;5.34;100.00;98823.66;4955753;28;20049;-81
2022/11/25 00:09:12;;;;;;;2.63;1.83;;;;;;;5.28;100.00;98822.19;4956889;28;20046;-81
2022/11/25 00:12:33;;;;;;;3.17;1.85;;;;;;;5.30;100.00;98822.97;4983190;28;20043;-81
2022/11/25 00:15:29;;;;;;;3.60;1.63;;;;;;;5.35;100.00;98822.75;4951329;28;20377;-82
2022/11/25 00:18:44;;;;;;;5.00;1.80;;;;;;;5.32;100.00;98834.09;4945337;28;20090;-81
2022/11/25 00:22:02;;;;;;;2.85;1.80;;;;;;;5.36;100.00;98827.03;4957664;28;20541;-82
2022/11/25 00:24:47;;;;;;;3.42;1.95;;;;;;;5.32;100.00;98828.09;4969179;28;20494;-83
2022/11/25 00:27:34;;;;;;;3.72;1.90;;;;;;;5.32;100.00;98828.91;4968516;28;20054;-81
2022/11/25 00:30:19;;;;;;;6.30;2.17;;;;;;;5.30;100.00;98835.94;4952411;28;20249;-81
2022/11/25 00:33:10;;;;;;;4.07;2.00;;;;;;;5.38;100.00;98835.59;4926929;28;20071;-82
2022/11/25 00:36:04;;;;;;;2.65;1.70;;;;;;;5.39;100.00;98839.88;4967325;28;20410;-82
2022/11/25 00:38:57;;;;;;;4.00;2.13;;;;;;;5.29;100.00;98845.50;4965655;28;20169;-81
2022/11/25 00:46:19;;;;;;;5.38;2.20;;;;;;;5.25;100.00;98846.56;4980211;23;20082;-81
2022/11/25 00:49:04;;;;;;;7.22;3.72;;;;;;;5.27;100.00;98851.69;4930729;28;20043;-82
2022/11/25 00:51:49;;;;;;;3.28;2.38;;;;;;;5.26;100.00;98845.63;4952925;28;20491;-80
2022/11/25 00:54:34;;;;;;;3.67;2.08;;;;;;;5.21;100.00;98844.13;4943936;28;20097;-82
2022/11/25 00:57:21;;;;;;;4.93;2.53;;;;;;;5.13;100.00;98852.28;4954924;28;20039;-81
2022/11/25 01:00:06;;;;;;;4.65;2.35;;;;;;;5.05;100.00;98848.28;4914367;28;20051;-80
2022/11/25 01:02:50;;;;;;;4.05;2.17;;;;;;;5.08;100.00;98839.50;4932530;28;20066;-81
2022/11/25 01:05:37;;;;;;;3.78;2.10;;;;;;;5.10;100.00;98847.22;4934579;28;20115;-81
2022/11/25 01:08:22;;;;;;;3.30;2.22;;;;;;;5.08;100.00;98842.09;4938917;28;20051;-81
2022/11/25 01:11:10;;;;;;;3.17;1.92;;;;;;;5.03;100.00;98836.25;4967010;28;20045;-81
2022/11/25 01:13:57;;;;;;;2.60;1.65;;;;;;;4.99;100.00;98832.97;4939927;28;20069;-80
2022/11/25 01:16:42;;;;;;;3.38;1.67;;;;;;;4.95;100.00;98847.00;4953828;28;20077;-81
2022/11/25 01:19:27;;;;;;;3.85;1.80;;;;;;;4.98;100.00;98844.25;4962773;28;20050;-81
2022/11/25 01:22:13;;;;;;;3.80;1.77;;;;;;;5.08;100.00;98851.63;4954207;28;20054;-81
2022/11/25 01:25:00;;;;;;;4.05;1.58;;;;;;;4.97;100.00;98849.53;4953971;28;20122;-81
2022/11/25 01:27:45;;;;;;;4.60;1.60;;;;;;;4.99;100.00;98852.91;4919766;28;20034;-81
2022/11/25 01:30:31;;;;;;;2.47;1.58;;;;;;;4.95;100.00;98849.59;4943355;28;20046;-81
2022/11/25 01:33:17;;;;;;;2.35;1.70;;;;;;;4.92;100.00;98852.31;4951621;28;20057;-82
2022/11/25 01:36:03;;;;;;;3.08;1.48;;;;;;;4.87;100.00;98856.88;4941228;28;20521;-81
2022/11/25 01:38:51;;;;;;;2.83;1.50;;;;;;;4.96;100.00;98859.06;4941366;28;20039;-82
2022/11/25 01:41:36;;;;;;;3.83;1.65;;;;;;;5.07;100.00;98852.56;4929091;28;20057;-82
2022/11/25 01:44:24;;;;;;;3.45;1.90;;;;;;;5.01;100.00;98858.88;4940654;28;20050;-81
2022/11/25 01:47:22;;;;;;;2.67;1.50;;;;;;;5.09;100.00;98854.19;4939210;28;20039;-81
2022/11/25 01:50:11;;;;;;;4.25;1.52;;;;;;;5.07;100.00;98869.00;4941198;28;20117;-80
2022/11/25 01:52:56;;;;;;;1.98;1.35;;;;;;;5.10;100.00;98860.22;4954068;28;20031;-80
2022/11/25 01:55:46;;;;;;;2.58;1.65;;;;;;;5.13;100.00;98871.31;4950713;28;20055;-81
2022/11/25 01:58:35;;;;;;;3.30;1.58;;;;;;;5.13;100.00;98865.28;4927665;28;20102;-82
2022/11/25 02:01:21;;;;;;;2.25;1.30;;;;;;;5.21;100.00;98870.97;4940614;28;20047;-82
2022/11/25 02:04:11;;;;;;;3.58;1.38;;;;;;;5.17;100.00;98867.66;4941548;28;20066;-82
2022/11/25 02:07:02;;;;;;;5.82;1.63;;;;;;;5.09;100.00;98864.59;4940485;28;20046;-81
2022/11/25 02:09:46;;;;;;;2.78;1.40;;;;;;;5.08;100.00;98865.47;4942230;28;20105;-82
2022/11/25 02:12:32;;;;;;;2.83;1.20;;;;;;;5.06;100.00;98877.69;4941696;28;20081;-81
2022/11/25 02:15:18;;;;;;;4.22;1.60;;;;;;;5.11;100.00;98869.72;4948774;28;20077;-82
2022/11/25 02:18:05;;;;;;;3.15;1.40;;;;;;;5.14;100.00;98869.56;4940986;28;20070;-82
2022/11/25 02:20:49;;;;;;;2.70;1.30;;;;;;;5.16;100.00;98873.78;4937057;28;20046;-80
2022/11/25 02:23:49;;;;;;;1.98;1.33;;;;;;;5.18;100.00;98861.56;4939981;28;20050;-83
2022/11/25 02:26:35;;;;;;;3.58;1.50;;;;;;;5.15;100.00;98866.06;4956053;28;20039;-81
2022/11/25 02:29:20;;;;;;;2.17;0.93;;;;;;;5.27;100.00;98864.66;4954354;28;20684;-82
2022/11/25 02:32:07;;;;;;;3.03;1.33;;;;;;;5.22;100.00;98867.47;4928913;28;20050;-81
2022/11/25 02:34:52;;;;;;;2.40;1.20;;;;;;;5.23;100.00;98874.34;4940563;28;20042;-81
2022/11/25 02:37:37;;;;;;;2.17;1.30;;;;;;;5.33;100.00;98876.53;4939245;28;20042;-81
2022/11/25 02:40:22;;;;;;;3.13;1.75;;;;;;;5.38;100.00;98874.56;4926939;28;20054;-81
2022/11/25 02:43:07;;;;;;;3.85;1.55;;;;;;;5.40;100.00;98880.53;4951314;28;20046;-81
2022/11/25 02:46:05;;;;;;;2.15;1.20;;;;;;;5.45;100.00;98877.72;4940899;28;20076;-81
2022/11/25 02:48:53;;;;;;;2.30;1.63;;;;;;;5.48;100.00;98888.84;4940937;28;20043;-81
2022/11/25 02:51:43;;;;;;;3.78;1.90;;;;;;;5.43;100.00;98883.00;4946522;28;20062;-81
2022/11/25 02:54:28;;;;;;;3.80;1.80;;;;;;;5.41;100.00;98884.81;4954394;28;20054;-82
2022/11/25 02:57:13;;;;;;;2.47;1.50;;;;;;;5.46;100.00;98882.88;4925558;28;20035;-81
2022/11/25 02:59:58;;;;;;;2.53;1.45;;;;;;;5.50;100.00;98894.78;4939237;28;20121;-82
2022/11/25 03:02:42;;;;;;;4.50;1.83;;;;;;;5.49;100.00;98887.91;4941454;28;20526;-81
2022/11/25 03:05:27;;;;;;;3.53;2.08;;;;;;;5.46;100.00;98893.25;4933956;28;20054;-81
2022/11/25 03:08:12;;;;;;;2.88;1.70;;;;;;;5.42;100.00;98892.53;4968700;28;20117;-82
2022/11/25 03:10:57;;;;;;;2.70;1.55;;;;;;;5.45;100.00;98893.31;4951395;28;20054;-81
2022/11/25 03:13:42;;;;;;;2.58;1.40;;;;;;;5.49;100.00;98892.25;4951816;28;20478;-81
2022/11/25 03:16:27;;;;;;;4.38;2.75;;;;;;;5.49;100.00;98897.47;4935657;28;20438;-81
2022/11/25 03:19:12;;;;;;;3.80;1.98;;;;;;;5.40;100.00;98898.72;4963066;23;20059;-81
2022/11/25 03:21:56;;;;;;;5.15;2.97;;;;;;;5.42;100.00;98902.94;4911651;28;20039;-83
2022/11/25 03:24:42;;;;;;;3.80;2.30;;;;;;;5.39;100.00;98900.47;4925611;28;20376;-81
2022/11/25 03:27:27;;;;;;;4.53;2.03;;;;;;;5.42;100.00;98902.09;4924742;28;20082;-83
2022/11/25 03:30:19;;;;;;;3.25;2.08;;;;;;;5.52;100.00;98910.31;4922649;29;20049;-81
2022/11/25 03:33:04;;;;;;;3.35;1.77;;;;;;;5.53;100.00;98912.03;4897254;28;20163;-82
2022/11/25 03:35:49;;;;;;;3.53;2.33;;;;;;;5.55;100.00;98915.38;4938746;29;20075;-81
2022/11/25 03:38:35;;;;;;;2.97;2.00;;;;;;;5.54;100.00;98922.34;4938247;29;20519;-83
2022/11/25 03:41:21;;;;;;;4.05;2.10;;;;;;;5.49;100.00;98923.44;4951372;28;20130;-82
2022/11/25 03:44:06;;;;;;;3.22;1.90;;;;;;;5.41;100.00;98926.41;4924325;28;20046;-82
2022/11/25 03:46:51;;;;;;;4.28;2.20;;;;;;;5.46;100.00;98928.78;4924464;28;20385;-82
2022/11/25 03:49:36;;;;;;;3.17;2.20;;;;;;;5.51;100.00;98925.09;4920660;29;20050;-82
2022/11/25 03:52:21;;;;;;;3.05;1.80;;;;;;;5.50;100.00;98930.34;4924147;29;20047;-82
2022/11/25 03:55:07;;;;;;;3.28;2.17;;;;;;;5.38;100.00;98927.38;4928393;28;20512;-81
2022/11/25 03:57:53;;;;;;;2.67;1.70;;;;;;;5.25;100.00;98928.84;4922270;28;20059;-81
2022/11/25 04:00:39;;;;;;;3.70;1.90;;;;;;;5.27;100.00;98935.63;4926298;29;20448;-82
2022/11/25 04:03:23;;;;;;;3.28;1.80;;;;;;;5.32;100.00;98927.63;4929231;28;20475;-82
2022/11/25 04:06:09;;;;;;;4.63;2.20;;;;;;;5.32;100.00;98938.03;4927376;28;20174;-82
2022/11/25 04:08:56;;;;;;;4.43;1.90;;;;;;;5.32;100.00;98943.22;4934576;29;20039;-81
2022/11/25 04:14:48;;;;;;;3.72;1.88;;;;;;;5.36;100.00;98941.34;4946282;28;20039;-80
2022/11/25 04:17:33;;;;;;;4.45;2.10;;;;;;;5.41;100.00;98947.19;4908499;29;20035;-81
2022/11/25 04:20:20;;;;;;;5.15;2.60;;;;;;;5.42;100.00;98947.13;4911548;29;20134;-81
2022/11/25 04:23:12;;;;;;;5.30;2.88;;;;;;;5.39;100.00;98946.41;4921922;28;20078;-81
2022/11/25 04:26:02;;;;;;;5.22;2.33;;;;;;;5.32;100.00;98958.00;4910646;28;20498;-82
2022/11/25 04:28:52;;;;;;;4.45;2.53;;;;;;;5.25;100.00;98945.28;4909360;28;20428;-82
2022/11/25 04:31:38;;;;;;;3.88;2.28;;;;;;;5.22;100.00;98955.81;4933509;29;20491;-81
2022/11/25 04:34:23;;;;;;;3.17;2.22;;;;;;;5.18;100.00;98957.69;4943856;29;20122;-81
2022/11/25 04:37:10;;;;;;;5.78;3.35;;;;;;;5.21;100.00;98959.28;4928730;28;20450;-81
2022/11/25 04:39:57;;;;;;;5.72;3.80;;;;;;;5.16;100.00;98964.69;4913107;29;20388;-81
2022/11/25 04:42:43;;;;;;;5.60;3.80;;;;;;;5.16;100.00;98966.44;4916783;29;20102;-82
2022/11/25 04:45:30;;;;;;;5.35;3.22;;;;;;;5.23;100.00;98970.47;4923548;28;20098;-83
2022/11/25 04:48:15;;;;;;;3.85;2.70;;;;;;;5.20;100.00;98965.41;4910369;28;20047;-81
2022/11/25 04:54:18;;;;;;;6.43;3.20;;;;;;;5.12;100.00;98964.88;4938086;28;20043;-81
2022/11/25 04:57:04;;;;;;;3.88;2.90;;;;;;;5.10;100.00;98977.09;4905549;28;20050;-83
2022/11/25 04:59:49;;;;;;;4.45;2.92;;;;;;;5.09;100.00;98978.88;4943708;28;20500;-81
2022/11/25 05:02:37;;;;;;;6.47;4.28;;;;;;;5.02;100.00;98975.69;4937809;29;20114;-80
2022/11/25 05:05:28;;;;;;;5.60;3.28;;;;;;;5.02;100.00;98980.88;4914561;28;20039;-81
2022/11/25 05:08:12;;;;;;;4.97;3.83;;;;;;;4.99;100.00;98980.16;4912966;28;20046;-82
2022/11/25 05:10:58;;;;;;;3.60;3.08;;;;;;;4.92;100.00;98976.97;4911906;29;20043;-82
2022/11/25 05:13:43;;;;;;;4.53;3.10;;;;;;;4.96;100.00;98986.28;4932871;29;20039;-81
2022/11/25 05:16:29;;;;;;;7.32;3.85;;;;;;;4.83;100.00;98993.75;4930318;28;20062;-83
2022/11/25 05:19:15;;;;;;;5.53;3.40;;;;;;;5.21;100.00;98987.00;4915003;28;20054;-80
2022/11/25 05:22:00;;;;;;;5.95;3.05;;;;;;;5.15;100.00;98981.19;4924544;29;20540;-81
2022/11/25 05:24:45;;;;;;;4.80;2.97;;;;;;;5.03;100.00;98989.47;4915518;29;20067;-82
2022/11/25 05:27:31;;;;;;;7.03;3.22;;;;;;;5.18;100.00;98988.00;4927435;28;20043;-80
2022/11/25 05:30:20;;;;;;;5.43;2.78;;;;;;;5.23;100.00;98988.66;4909191;29;20054;-82
2022/11/25 05:33:05;;;;;;;3.67;2.42;;;;;;;5.26;100.00;98996.31;4939984;28;20093;-83
2022/11/25 05:36:01;;;;;;;9.23;3.40;;;;;;;5.28;100.00;98993.66;4912886;29;20039;-83
2022/11/25 05:38:58;;;;;;;3.35;2.20;;;;;;;5.24;100.00;98998.13;4924236;29;20531;-82
2022/11/25 05:41:54;;;;;;;6.13;2.53;;;;;;;5.36;100.00;98995.91;4931039;29;20045;-81
2022/11/25 05:44:40;;;;;;;4.28;2.78;;;;;;;5.38;100.00;99000.16;4914157;29;20694;-81
2022/11/25 05:47:25;;;;;;;5.03;2.45;;;;;;;5.43;100.00;98995.56;4931714;28;20522;-81
2022/11/25 05:50:10;;;;;;;5.43;2.70;;;;;;;5.54;100.00;98991.66;4939943;29;20043;-84
2022/11/25 05:52:55;;;;;;;11.02;4.15;;;;;;;5.84;100.00;99001.63;4912783;29;20063;-80
2022/11/25 05:55:42;;;;;;;6.78;3.35;;;;;;;5.88;100.00;99002.31;4933400;28;20071;-82
2022/11/25 05:58:35;;;;;;;6.03;2.90;;;;;;;5.74;100.00;99000.34;4922479;28;20042;-83
2022/11/25 06:01:22;;;;;;;11.90;3.95;;;;;;;6.27;100.00;99003.16;4922638;29;20565;-85
2022/11/25 06:04:10;;;;;;;11.93;3.95;;;;;;;6.22;100.00;99008.59;4934648;29;20126;-81
2022/11/25 06:06:55;;;;;;;8.48;3.53;;;;;;;5.99;100.00;99010.47;4919414;29;20094;-82
2022/11/25 06:09:40;;;;;;;6.28;3.15;;;;;;;5.76;100.00;99008.91;4920335;29;20035;-83
2022/11/25 06:12:25;;;;;;;7.63;2.95;;;;;;;5.55;100.00;99015.00;4920840;28;20377;-82
2022/11/25 06:15:13;;;;;;;5.78;3.22;;;;;;;5.44;100.00;99014.63;4939037;29;20058;-81
2022/11/25 06:17:58;;;;;;;8.15;3.00;;;;;;;5.27;100.00;99015.34;4949042;28;20154;-81
2022/11/25 06:20:44;;;;;;;6.35;2.70;;;;;;;5.21;100.00;99011.25;4906263;29;20114;-81
2022/11/25 06:23:30;;;;;;;5.63;3.10;;;;;;;5.15;100.00;99016.69;4925576;29;20087;-81
2022/11/25 06:26:18;;;;;;;3.97;2.70;;;;;;;5.02;100.00;99016.38;4946463;28;20039;-82
2022/11/25 06:29:04;;;;;;;5.57;2.80;;;;;;;5.01;100.00;99023.31;4928169;28;20455;-84
2022/11/25 06:31:49;;;;;;;5.10;2.65;;;;;;;4.99;100.00;99019.09;4911471;29;20121;-82
2022/11/25 06:35:02;;;;;;;6.07;3.00;;;;;;;4.97;100.00;99026.97;4937552;29;20487;-83
2022/11/25 06:37:58;;;;;;;6.30;2.55;;;;;;;5.04;100.00;99028.38;4914321;29;20072;-82
2022/11/25 06:40:43;;;;;;;4.57;1.80;;;;;;;5.02;100.00;99029.34;4915557;29;20062;-82
2022/11/25 06:43:28;;;;;;;4.00;2.28;;;;;;;5.07;100.00;99023.97;4916467;29;20052;-83
2022/11/25 06:46:15;;;;;;;4.35;2.72;;;;;;;4.95;100.00;99020.13;4902308;29;20099;-82
2022/11/25 06:48:59;;;;;;;4.13;2.03;;;;;;;4.92;100.00;99015.91;4874463;29;20157;-83
2022/11/25 06:51:44;;;;;;;4.93;2.30;;;;;;;4.83;100.00;99021.47;4913710;29;20503;-82
2022/11/25 06:54:30;;;;;;;4.10;1.75;;;;;;;4.80;100.00;99025.03;4927042;29;20052;-82
2022/11/25 06:57:18;;;;;;;4.57;2.17;;;;;;;4.81;100.00;99024.16;4914264;29;20055;-83
2022/11/25 07:00:07;;;;;;;3.20;1.60;;;;;;;4.83;100.00;99029.28;4905106;29;20051;-82
2022/11/25 07:02:52;;;;;;;4.35;2.00;;;;;;;5.32;100.00;99022.94;4924778;29;20148;-82
2022/11/25 07:05:36;;;;;;;4.07;2.08;;;;;;;6.19;100.00;99031.28;4897067;29;20130;-81
2022/11/25 07:08:23;;;;;;;6.75;1.98;;;;;;;6.75;100.00;99033.91;4898245;29;20558;-84
2022/11/25 07:11:18;;;;;;;2.78;1.52;;;;;;;7.45;100.00;99040.88;4900912;29;20036;-82
2022/11/25 07:14:05;;;;;;;7.43;2.53;;;;;;;7.87;100.00;99032.66;4913596;28;20403;-83
2022/11/25 07:16:50;;;;;;;4.63;1.63;;;;;;;8.25;98.70;99031.53;4923646;28;20067;-82
2022/11/25 07:19:36;;;;;;;3.45;1.42;;;;;;;8.52;93.96;99043.16;4933361;28;20190;-83
2022/11/25 07:22:21;;;;;;;2.67;1.40;;;;;;;9.14;96.16;99036.22;4932197;28;20089;-83
2022/11/25 07:25:08;;;;;;;2.88;1.40;;;;;;;9.41;92.64;99035.53;4911840;28;20050;-82
2022/11/25 07:27:55;;;;;;;4.05;1.50;;;;;;;9.77;88.81;99038.63;4938638;28;20078;-83
2022/11/25 07:30:39;;;;;;;2.92;1.42;;;;;;;10.49;87.91;99034.25;4936822;28;20534;-84
2022/11/25 07:33:25;;;;;;;2.50;1.20;;;;;;;10.80;84.05;99035.75;4921195;28;20047;-83
2022/11/25 07:36:37;;;;;;;3.70;1.35;;;;;;;11.26;78.51;99038.03;4942006;28;20126;-82
2022/11/25 07:39:23;;;;;;;2.88;1.60;;;;;;;11.55;78.07;99035.22;4950313;28;20058;-82
2022/11/25 07:42:08;;;;;;;4.80;2.42;;;;;;;11.88;73.97;99028.56;4930211;28;20055;-84
2022/11/25 07:44:52;;;;;;;3.05;0.60;;;;;;;11.97;76.73;99034.13;4922233;29;20086;-84
2022/11/25 07:48:01;;;;;;;2.17;0.70;;;;;;;12.00;75.37;99028.66;4934258;29;20044;-84
2022/11/25 07:50:48;;;;;;;1.58;0.60;;;;;;;11.57;70.83;99035.97;4913543;29;20512;-82
2022/11/25 07:53:36;;;;;;;1.65;0.57;;;;;;;11.45;73.43;99038.47;4934551;28;20054;-84
2022/11/25 07:56:21;;;;;;;2.72;0.80;;;;;;;11.40;71.69;99035.31;4911773;28;20035;-83
2022/11/25 07:59:14;;;;;;;4.60;1.25;;;;;;;12.12;72.10;99033.09;4925390;29;20122;-83
2022/11/25 08:01:58;;;;;;;2.83;0.60;;;;;;;12.21;69.22;99033.38;4937167;28;20075;-83
2022/11/25 08:04:43;;;;;;;1.30;0.55;;;;;;;12.44;71.38;99035.19;4954019;28;20039;-84
2022/11/25 08:07:28;;;;;;;1.90;0.70;;;;;;;13.23;71.40;99033.00;4929270;29;20113;-84
2022/11/25 08:10:13;;;;;;;1.52;0.50;;;;;;;13.60;66.79;99029.38;4914955;29;20110;-85
2022/11/25 08:12:58;;;;;;;2.63;0.63;;;;;;;13.08;65.67;99035.00;4917140;28;20093;-84
2022/11/25 08:15:43;;;;;;;1.80;0.70;;;;;;;12.71;68.36;99043.81;4927648;29;20114;-85
2022/11/25 08:18:28;;;;;;;3.17;0.95;;;;;;;13.48;68.80;99039.00;4924054;29;20498;-84
2022/11/25 08:21:14;;;;;;;3.47;0.60;;;;;;;13.96;66.72;99044.22;4936563;28;20071;-85
2022/11/25 08:24:01;;;;;;;1.55;0.60;;;;;;;14.18;62.63;99038.13;4932048;28;20135;-85
2022/11/25 08:26:48;;;;;;;1.02;0.50;;;;;;;14.61;64.42;99043.50;4937178;29;20054;-84
2022/11/25 08:29:32;;;;;;;3.47;0.95;;;;;;;15.07;61.90;99044.22;4932465;29;20130;-84
2022/11/25 08:32:17;;;;;;;2.63;0.50;;;;;;;14.99;59.42;99049.28;4945630;28;20067;-84
2022/11/25 08:35:02;;;;;;;1.13;0.65;;;;;;;15.11;58.04;99048.25;4945697;29;20086;-84
2022/11/25 08:37:48;;;;;;;2.08;0.80;;;;;;;14.79;61.07;99051.72;4938770;29;20115;-83
2022/11/25 08:40:35;;;;;;;1.48;0.80;;;;;;;14.50;59.44;99054.94;4926450;28;20039;-84
2022/11/25 08:43:20;;;;;;;2.60;1.08;;;;;;;15.37;68.97;99062.88;4918253;29;20150;-90
2022/11/25 08:46:12;;;;;;;2.78;1.40;;;;;;;15.59;69.87;99067.19;4923918;29;20165;-84
2022/11/25 08:48:57;;;;;;;1.50;1.20;;;;;;;15.62;68.87;99071.34;4927190;29;20047;-84
2022/11/25 08:51:42;;;;;;;3.40;1.65;;;;;;;15.40;66.63;99078.47;4908716;28;20419;-84
2022/11/25 08:54:26;;;;;;;2.35;1.10;;;;;;;15.71;63.11;99078.50;4926928;29;20039;-84
2022/11/25 08:57:12;;;;;;;1.75;0.82;;;;;;;15.37;65.31;99076.91;4936641;29;20039;-84
2022/11/25 08:59:56;;;;;;;2.42;0.85;;;;;;;15.60;64.99;99083.88;4944480;28;20110;-83
2022/11/25 09:02:41;;;;;;;1.27;0.60;;;;;;;15.53;58.57;99078.25;4910192;28;20031;-84
2022/11/25 09:05:27;;;;;;;2.42;0.85;;;;;;;16.15;58.18;99082.75;4925372;28;20058;-84
2022/11/25 09:08:12;;;;;;;1.52;0.77;;;;;;;16.62;61.12;99076.91;4907656;29;20058;-84
2022/11/25 09:11:03;;;;;;;2.78;0.90;;;;;;;16.00;56.44;99091.06;4924775;28;20459;-84
2022/11/25 09:13:50;;;;;;;1.70;1.00;;;;;;;15.70;55.84;99079.47;4914966;29;20043;-83
2022/11/25 09:16:36;;;;;;;2.67;1.00;;;;;;;15.72;59.16;99090.75;4947296;28;20051;-83
2022/11/25 09:19:20;;;;;;;3.53;1.10;;;;;;;16.56;60.43;99071.31;4930221;28;20070;-84
2022/11/25 09:22:06;;;;;;;1.45;0.60;;;;;;;16.27;56.23;99080.88;4943821;29;20119;-85
2022/11/25 09:24:51;;;;;;;2.40;0.82;;;;;;;16.61;57.86;99080.50;4932420;29;20078;-86
2022/11/25 09:27:44;;;;;;;3.15;1.08;;;;;;;16.77;56.67;99080.94;4938681;28;20051;-85
2022/11/25 09:30:30;;;;;;;2.15;1.00;;;;;;;17.54;53.07;99072.28;4925811;28;20055;-84
2022/11/25 09:33:18;;;;;;;2.00;0.90;;;;;;;17.95;55.86;99075.50;4931482;29;20157;-83
2022/11/25 09:36:05;;;;;;;1.65;1.05;;;;;;;18.19;58.65;99073.34;4940155;29;20126;-83
2022/11/25 09:38:51;;;;;;;2.63;1.33;;;;;;;18.51;58.22;99068.56;4934844;28;20043;-84
2022/11/25 09:48:21;;;;;;;3.13;1.13;;;;;;;18.14;58.00;99086.19;4913848;28;20059;-84
2022/11/25 09:51:31;;;;;;;2.47;1.20;;;;;;;18.08;61.89;99077.81;4937906;29;20067;-84
2022/11/25 09:54:36;;;;;;;2.88;1.50;;;;;;;18.12;54.33;99082.81;4910848;29;20126;-85
2022/11/25 09:57:56;;;;;;;3.17;1.48;;;;;;;18.09;54.28;99084.81;4939026;29;20147;-85
2022/11/25 10:00:46;;;;;;;2.47;1.10;;;;;;;18.22;60.19;99083.66;4928324;29;20086;-83
2022/11/25 10:03:40;;;;;;;1.65;0.80;;;;;;;18.25;62.06;99079.88;4945895;28;20077;-84
2022/11/25 10:06:33;;;;;;;2.40;0.90;;;;;;;18.34;58.24;99084.28;4912241;28;20043;-84
2022/11/25 10:09:24;;;;;;;2.35;0.80;;;;;;;18.51;53.04;99090.59;4923593;28;20059;-85
2022/11/25 10:12:31;;;;;;;3.83;1.10;;;;;;;19.08;55.79;99091.31;4932608;29;20126;-84
2022/11/25 10:15:26;;;;;;;1.90;1.23;;;;;;;19.32;54.24;99098.69;4951648;28;20127;-84
2022/11/25 10:18:26;;;;;;;2.58;0.80;;;;;;;19.35;57.10;99092.25;4923294;28;20079;-85
2022/11/25 10:21:11;;;;;;;5.07;1.20;;;;;;;19.11;52.47;99087.56;4921171;28;20138;-85
2022/11/25 10:23:57;;;;;;;4.15;1.20;;;;;;;19.20;53.91;99094.59;4896966;29;20134;-84
2022/11/25 10:26:56;;;;;;;1.67;0.52;;;;;;;19.32;56.86;99101.34;4954602;28;20510;-85
2022/11/25 10:29:46;;;;;;;2.95;1.02;;;;;;;19.54;52.83;99101.84;4934649;29;20039;-82
2022/11/25 10:32:38;;;;;;;;;;;;;;;19.68;54.67;99092.44;4940241;28;20134;-84
2022/11/25 10:35:29;;;;;;;2.45;0.60;;;;;;;19.96;51.93;99091.44;4918872;29;19923;-84
2022/11/25 10:38:35;;;;;;;1.80;0.70;;;;;;;19.96;53.56;99090.63;4904588;29;20111;-83
2022/11/25 10:41:26;;;;;;;1.55;0.70;;;;;;;19.65;48.72;99083.97;4905869;29;20059;-83
2022/11/25 10:44:23;;;;;;;3.05;0.75;;;;;;;20.21;49.75;99088.09;4915305;29;20094;-82
2022/11/25 10:47:36;;;;;;;1.33;0.60;;;;;;;20.48;51.16;99081.72;4919217;29;20047;-82
2022/11/25 10:50:26;;;;;;;1.75;0.50;;;;;;;20.51;49.64;99076.06;4920027;29;20057;-84
2022/11/25 10:53:15;;;;;;;2.53;1.00;;;;;;;20.95;52.38;99068.84;4902549;29;20051;-85
2022/11/25 10:56:04;;;;;;;1.35;0.68;;;;;;;20.73;45.00;99073.75;4914347;29;20142;-84
2022/11/25 10:58:49;;;;;;;1.92;0.70;;;;;;;20.87;47.67;99082.94;4917010;29;20118;-85
2022/11/25 11:01:35;;;;;;;1.25;0.52;;;;;;;21.13;48.91;99070.50;4916741;29;20043;-86
2022/11/25 11:04:20;;;;;;;2.70;0.93;;;;;;;21.40;47.73;99074.66;4877732;29;20060;-84
2022/11/25 11:07:23;;;;;;;2.70;0.52;;;;;;;21.53;49.56;99070.63;4860981;29;20113;-85
2022/11/25 11:10:25;;;;;;;1.40;0.65;;;;;;;21.42;47.13;99061.16;4856388;29;20048;-83
2022/11/25 11:13:31;;;;;;;1.83;0.63;;;;;;;21.33;48.02;99064.84;4865373;29;20045;-84
2022/11/25 11:16:23;;;;;;;2.00;0.68;;;;;;;21.13;51.31;99059.84;4893136;29;20078;-85
2022/11/25 11:19:22;;;;;;;3.15;0.73;;;;;;;21.56;47.14;99066.81;4882306;29;20044;-85
2022/11/25 11:22:26;;;;;;;1.63;0.70;;;;;;;21.27;51.16;99061.00;4892759;29;20053;-85
2022/11/25 11:25:28;;;;;;;2.10;0.55;;;;;;;22.14;45.30;99055.97;4880479;29;20305;-86
2022/11/25 11:28:38;;;;;;;3.97;0.95;;;;;;;21.66;47.87;99054.94;4894619;29;20083;-84
2022/11/25 11:31:27;;;;;;;1.63;0.70;;;;;;;21.66;46.78;99049.63;4884204;29;20604;-84
2022/11/25 11:34:55;;;;;;;1.80;0.63;;;;;;;22.29;48.95;99042.72;4848184;29;20080;-83
2022/11/25 11:37:46;;;;;;;1.08;0.20;;;;;;;20.30;40.32;99040.06;4876549;29;20044;-85
2022/11/25 11:40:57;;;;;;;2.60;0.70;;;;;;;20.99;44.21;99046.19;4896648;29;20048;-85
2022/11/25 11:44:17;;;;;;;3.10;0.40;;;;;;;21.46;43.20;99046.47;4902874;28;20050;-86
2022/11/25 11:47:09;;;;;;;1.92;0.50;;;;;;;21.58;44.49;99041.63;4953182;28;20075;-87
2022/11/25 11:50:07;;;;;;;2.13;0.65;;;;;;;21.47;41.00;99050.81;4954145;28;20483;-85
2022/11/25 11:53:11;;;;;;;1.73;0.45;;;;;;;21.58;40.53;99044.31;4928616;29;20043;-85
2022/11/25 11:55:57;;;;;;;1.58;0.38;;;;;;;21.35;39.55;99045.00;4914964;28;20039;-85
2022/11/25 11:58:45;;;;;;;1.58;0.47;;;;;;;20.90;47.10;99039.19;4919284;28;20073;-86
2022/11/25 12:01:42;;;;;;;1.13;0.43;;;;;;;21.41;39.56;99032.84;4930935;28;20039;-85
2022/11/25 12:05:14;;;;;;;2.53;0.40;;;;;;;21.44;37.57;99032.50;4919934;29;20032;-85
2022/11/25 12:08:04;;;;;;;1.55;0.50;;;;;;;20.47;43.81;99032.16;4867681;29;20136;-84
2022/11/25 12:10:54;;;;;;;2.83;0.50;;;;;;;21.81;46.15;99037.44;4856436;29;20124;-85
2022/11/25 12:13:54;;;;;;;1.73;0.40;;;;;;;22.43;44.24;99033.13;4856599;29;20175;-86
2022/11/25 12:16:49;;;;;;;0.98;0.30;;;;;;;22.04;46.06;99034.84;4865138;29;20997;-85
2022/11/25 12:19:49;;;;;;;1.20;0.40;;;;;;;22.23;45.46;99048.78;4867312;29;20055;-84
2022/11/25 12:22:46;;;;;;;1.23;0.45;;;;;;;21.96;45.63;99037.53;4866212;29;20061;-84
2022/11/25 12:25:37;;;;;;;1.98;0.50;;;;;;;22.49;42.32;99037.75;4883501;29;20064;-85
2022/11/25 12:28:32;;;;;;;2.67;0.60;;;;;;;21.28;45.05;99049.38;4883235;29;20127;-84
2022/11/25 12:31:26;;;;;;;3.60;0.70;;;;;;;20.88;48.09;99044.69;4866840;29;20053;-83
2022/11/25 12:34:33;;;;;;;0.93;0.35;;;;;;;21.03;46.23;99042.22;4870477;29;20053;-84
2022/11/25 12:37:36;;;;;;;2.10;0.73;;;;;;;21.41;48.39;99038.19;4871165;29;20379;-84
2022/11/25 12:40:41;;;;;;;1.35;0.63;;;;;;;21.67;45.87;99045.13;4919358;28;20047;-84
2022/11/25 12:43:41;;;;;;;1.42;0.45;;;;;;;22.07;42.38;99039.81;4940944;28;20039;-84
2022/11/25 12:46:51;;;;;;;1.65;0.43;;;;;;;22.20;42.77;99033.94;4922134;29;20114;-84
2022/11/25 12:49:44;;;;;;;1.70;0.30;;;;;;;22.26;43.89;99035.91;4931735;29;20476;-86
2022/11/25 12:52:46;;;;;;;1.10;0.47;;;;;;;22.56;43.30;99042.38;4929497;29;20039;-85
2022/11/25 12:55:33;;;;;;;1.75;0.60;;;;;;;22.95;43.89;99037.97;4933351;29;20051;-84
2022/11/25 12:58:43;;;;;;;1.70;0.80;;;;;;;22.32;42.25;99041.53;4925706;28;20043;-85
2022/11/25 13:01:43;;;;;;;6.15;0.60;;;;;;;22.59;46.21;99032.19;4943007;28;20074;-85
2022/11/25 13:04:56;;;;;;;;;;;;;;;23.18;38.99;99034.44;4934562;28;20053;-84
2022/11/25 13:08:07;;;;;;;1.00;0.40;;;;;;;22.54;41.39;99039.91;4928327;28;20013;-86
2022/11/25 13:11:20;;;;;;;2.60;0.60;;;;;;;22.24;39.50;99039.75;4948547;28;20407;-85
2022/11/25 13:14:19;;;;;;;1.80;0.60;;;;;;;22.55;44.48;99032.72;4921753;29;20138;-86
2022/11/25 13:17:10;;;;;;;2.55;0.80;;;;;;;22.13;42.16;99043.66;4917153;29;20443;-85
2022/11/25 13:20:41;;;;;;;1.50;0.73;;;;;;;21.98;44.73;99040.88;4924736;29;20176;-84
2022/11/25 13:23:28;;;;;;;2.20;1.00;;;;;;;22.17;45.34;99036.94;4923569;29;20046;-83
2022/11/25 13:26:28;;;;;;;1.55;0.60;;;;;;;22.43;42.18;99042.97;4928540;29;20078;-84
2022/11/25 13:29:13;;;;;;;1.10;0.50;;;;;;;22.47;44.17;99038.97;4896439;29;20067;-86
2022/11/25 13:32:06;;;;;;;2.03;0.40;;;;;;;22.97;45.68;99030.63;4905040;29;20077;-86
2022/11/25 13:35:20;;;;;;;2.33;0.55;;;;;;;22.75;40.01;99033.13;4923517;29;20059;-84
2022/11/25 13:38:06;;;;;;;0.93;0.40;;;;;;;22.13;38.91;99043.66;4914612;29;20134;-85
2022/11/25 13:41:15;;;;;;;2.20;0.60;;;;;;;21.76;44.07;99046.75;4914970;29;20047;-84